Time;durP1;ratioP1;P1;durP2;ratioP2;P2;SDS_P1;SDS_P2;PMS_P1;PMS_P2;Temp;Humidity;BMP_temperature;BMP_pressure;BME280_temperature;BME280_humidity;BME280_pressure;Samples;Min_cycle;Max_cycle;Signal;HPM_P1;HPM_P2
2023/03/12 00:00:40;;;;;;;6.22;2.35;;;9.10;77.60;;;;;;4980422;28;20564;-84
2023/03/12 00:03:06;;;;;;;6.47;2.10;;;9.10;77.70;;;;;;4998739;28;20610;-85
2023/03/12 00:05:32;;;;;;;5.38;2.13;;;9.10;77.70;;;;;;4980484;28;20052;-84
2023/03/12 00:07:58;;;;;;;5.60;2.13;;;9.10;77.70;;;;;;4997998;28;20026;-84
2023/03/12 00:10:25;;;;;;;6.22;2.35;;;9.10;77.70;;;;;;4980079;28;20029;-84
2023/03/12 00:12:51;;;;;;;5.10;1.98;;;9.10;77.70;;;;;;4980044;28;20073;-85
2023/03/12 00:15:17;;;;;;;5.95;2.15;;;9.10;77.70;;;;;;4981647;28;20022;-85
2023/03/12 00:17:42;;;;;;;7.13;2.20;;;9.10;77.70;;;;;;4979954;28;20103;-85
2023/03/12 00:20:09;;;;;;;5.28;2.10;;;9.10;77.60;;;;;;4979394;28;20501;-84
2023/03/12 00:22:34;;;;;;;5.13;2.00;;;9.10;77.70;;;;;;4979161;28;20125;-86
2023/03/12 00:25:01;;;;;;;4.65;2.08;;;9.10;77.70;;;;;;5000385;28;20108;-86
2023/03/12 00:27:26;;;;;;;5.90;2.30;;;9.10;77.70;;;;;;5000637;28;20041;-86
2023/03/12 00:29:52;;;;;;;4.95;2.03;;;9.10;77.70;;;;;;4982586;28;20034;-85
2023/03/12 00:32:18;;;;;;;4.78;1.92;;;9.10;77.70;;;;;;4982738;28;20054;-86
2023/03/12 00:34:43;;;;;;;5.60;2.20;;;9.10;77.70;;;;;;4999491;28;20022;-85
2023/03/12 00:37:09;;;;;;;5.05;1.95;;;9.10;77.60;;;;;;4982013;28;20023;-84
2023/03/12 00:39:35;;;;;;;5.88;2.28;;;9.10;77.60;;;;;;4999028;28;20026;-84
2023/03/12 00:42:01;;;;;;;5.40;2.25;;;9.10;77.70;;;;;;4998955;28;20030;-84
2023/03/12 00:44:26;;;;;;;7.43;2.38;;;9.10;77.70;;;;;;4980972;28;20624;-84
2023/03/12 00:46:52;;;;;;;5.82;2.10;;;9.10;77.70;;;;;;4980522;28;20026;-85
2023/03/12 00:49:17;;;;;;;5.15;2.20;;;9.10;77.70;;;;;;4982841;28;20046;-84
2023/03/12 00:51:43;;;;;;;6.28;2.47;;;9.10;77.70;;;;;;4983689;28;20050;-82
2023/03/12 00:54:08;;;;;;;4.95;2.10;;;9.10;77.70;;;;;;4982995;28;20049;-84
2023/03/12 00:56:34;;;;;;;5.82;2.20;;;9.10;77.70;;;;;;4987040;28;20026;-86
2023/03/12 00:58:59;;;;;;;5.50;2.28;;;9.00;77.70;;;;;;4986191;28;20080;-85
2023/03/12 01:01:26;;;;;;;7.00;2.20;;;9.10;77.70;;;;;;4985451;28;20029;-84
2023/03/12 01:03:52;;;;;;;5.22;2.17;;;9.10;77.70;;;;;;4982290;28;20026;-83
2023/03/12 01:06:18;;;;;;;5.95;2.40;;;9.00;77.70;;;;;;4983568;28;20034;-86
2023/03/12 01:08:43;;;;;;;5.47;2.20;;;9.10;77.70;;;;;;4984417;28;20081;-84
2023/03/12 01:11:17;;;;;;;5.65;2.05;;;9.00;77.60;;;;;;4981822;28;20493;-83
2023/03/12 01:13:42;;;;;;;4.30;2.05;;;9.10;78.30;;;;;;4999958;28;20489;-85
2023/03/12 01:16:08;;;;;;;6.00;2.45;;;9.10;77.70;;;;;;4984106;28;20065;-85
2023/03/12 01:18:33;;;;;;;5.70;2.25;;;9.00;77.60;;;;;;4985897;28;20033;-85
2023/03/12 01:20:59;;;;;;;5.47;2.05;;;9.00;77.60;;;;;;4986265;28;20030;-85
2023/03/12 01:23:24;;;;;;;5.15;2.15;;;9.10;77.70;;;;;;4982028;28;20039;-84
2023/03/12 01:25:51;;;;;;;7.15;2.40;;;9.10;77.70;;;;;;4998510;28;20041;-84
2023/03/12 01:28:17;;;;;;;6.63;2.10;;;9.00;77.70;;;;;;5000742;28;20029;-84
2023/03/12 01:30:42;;;;;;;3.97;1.90;;;9.00;77.70;;;;;;4998296;28;20097;-84
2023/03/12 01:33:08;;;;;;;6.43;2.00;;;9.00;77.70;;;;;;4980345;28;20425;-84
2023/03/12 01:35:36;;;;;;;5.60;2.28;;;9.00;77.70;;;;;;4998213;28;20019;-85
2023/03/12 01:38:01;;;;;;;4.43;1.85;;;9.00;77.70;;;;;;4982839;28;20026;-86
2023/03/12 01:40:28;;;;;;;5.07;1.98;;;9.00;77.70;;;;;;4981650;28;20587;-84
2023/03/12 01:42:57;;;;;;;5.10;1.90;;;9.00;77.70;;;;;;4980090;28;20057;-84
2023/03/12 01:46:00;;;;;;;5.85;2.05;;;9.00;77.70;;;;;;4980019;28;20027;-84
2023/03/12 01:48:32;;;;;;;5.93;1.90;;;9.00;77.70;;;;;;4979723;28;20037;-85
2023/03/12 01:50:58;;;;;;;;;;;9.00;77.70;;;;;;4980345;28;20026;-84
2023/03/12 01:53:24;;;;;;;5.80;2.55;;;9.00;77.70;;;;;;4996255;28;19912;-84
2023/03/12 01:55:49;;;;;;;4.85;1.92;;;9.00;77.70;;;;;;4967589;28;20623;-84
2023/03/12 01:58:15;;;;;;;4.75;2.05;;;9.00;77.80;;;;;;4957984;29;20027;-84
2023/03/12 02:00:41;;;;;;;5.60;2.35;;;9.00;77.70;;;;;;4956110;28;20114;-84
2023/03/12 02:03:08;;;;;;;5.05;2.10;;;9.00;77.70;;;;;;4958127;29;20074;-84
2023/03/12 02:05:57;;;;;;;5.55;2.40;;;9.00;77.80;;;;;;4956253;29;20027;-85
2023/03/12 02:08:23;;;;;;;5.43;2.10;;;9.00;77.80;;;;;;4957545;28;20027;-85
2023/03/12 02:10:48;;;;;;;5.07;2.10;;;9.00;77.80;;;;;;4957299;29;20493;-84
2023/03/12 02:13:14;;;;;;;4.30;2.17;;;9.00;77.80;;;;;;4957120;29;20023;-84
2023/03/12 02:15:40;;;;;;;5.07;2.20;;;9.00;77.80;;;;;;4957396;29;20031;-85
2023/03/12 02:18:08;;;;;;;5.05;2.13;;;9.00;77.80;;;;;;4957028;29;20115;-84
2023/03/12 02:20:57;;;;;;;3.65;2.10;;;9.00;77.80;;;;;;4957177;28;20119;-83
2023/03/12 02:23:59;;;;;;;4.70;2.10;;;9.00;77.80;;;;;;4956949;29;20486;-84
2023/03/12 02:26:27;;;;;;;6.03;2.33;;;9.00;77.80;;;;;;4955851;29;20028;-83
2023/03/12 02:28:55;;;;;;;4.15;1.88;;;9.00;77.80;;;;;;4956929;28;20062;-84
2023/03/12 02:31:25;;;;;;;4.50;2.20;;;9.00;77.80;;;;;;4956660;29;20770;-83
2023/03/12 02:33:52;;;;;;;4.45;2.00;;;9.00;77.80;;;;;;4955085;29;20031;-83
2023/03/12 02:36:18;;;;;;;4.22;1.90;;;9.00;77.80;;;;;;4954838;29;20031;-85
2023/03/12 02:38:46;;;;;;;5.63;2.20;;;9.00;77.80;;;;;;4954976;28;20482;-84
2023/03/12 02:41:21;;;;;;;4.45;1.95;;;9.00;77.80;;;;;;4954957;29;20047;-84
2023/03/12 02:44:10;;;;;;;4.05;1.95;;;9.00;77.80;;;;;;4956671;29;20119;-84
2023/03/12 02:46:41;;;;;;;5.03;2.20;;;9.00;77.80;;;;;;4955672;29;20502;-84
2023/03/12 02:49:07;;;;;;;4.80;2.20;;;9.00;77.80;;;;;;4955126;28;20409;-84
2023/03/12 02:51:33;;;;;;;5.10;2.33;;;9.00;77.80;;;;;;4955020;29;20135;-83
2023/03/12 02:53:58;;;;;;;5.00;2.40;;;9.00;77.70;;;;;;4959881;29;20031;-86
2023/03/12 02:56:27;;;;;;;4.82;2.00;;;9.00;77.70;;;;;;4946544;29;20435;-86
2023/03/12 02:58:53;;;;;;;5.90;2.30;;;8.90;77.60;;;;;;4945123;29;20023;-85
2023/03/12 03:01:19;;;;;;;4.60;2.15;;;9.00;77.70;;;;;;4961282;29;20702;-84
2023/03/12 03:03:45;;;;;;;5.07;2.30;;;9.00;77.80;;;;;;4960467;29;20059;-85
2023/03/12 03:06:11;;;;;;;5.00;2.00;;;9.00;77.60;;;;;;4960043;29;20039;-85
2023/03/12 03:08:37;;;;;;;4.07;2.13;;;8.90;77.60;;;;;;4962086;28;20121;-85
2023/03/12 03:11:02;;;;;;;4.57;2.20;;;9.00;77.70;;;;;;4943192;29;20102;-85
2023/03/12 03:13:29;;;;;;;5.53;2.40;;;9.00;77.70;;;;;;4960052;29;20060;-84
2023/03/12 03:15:56;;;;;;;5.88;2.28;;;9.00;77.70;;;;;;4959817;29;20039;-84
2023/03/12 03:18:22;;;;;;;4.60;2.35;;;9.00;77.70;;;;;;4959458;28;20054;-85
2023/03/12 03:20:56;;;;;;;4.85;2.38;;;8.90;77.60;;;;;;4943100;29;20051;-84
2023/03/12 03:23:22;;;;;;;4.75;2.17;;;9.00;77.70;;;;;;4960528;29;20031;-82
2023/03/12 03:25:47;;;;;;;5.30;2.10;;;9.00;77.70;;;;;;4960434;29;20042;-86
2023/03/12 03:28:13;;;;;;;4.15;2.17;;;9.00;77.60;;;;;;4958008;28;20090;-86
2023/03/12 03:30:39;;;;;;;4.80;2.38;;;8.90;77.60;;;;;;4957984;28;20142;-84
2023/03/12 03:33:05;;;;;;;5.25;2.25;;;8.90;77.50;;;;;;4942244;29;20027;-84
2023/03/12 03:35:32;;;;;;;4.10;2.22;;;9.00;77.60;;;;;;4943476;29;20023;-85
2023/03/12 03:37:57;;;;;;;4.78;2.30;;;9.00;77.60;;;;;;4942568;29;20542;-85
2023/03/12 03:40:23;;;;;;;5.15;2.42;;;8.90;77.50;;;;;;4958790;28;20065;-85
2023/03/12 03:42:48;;;;;;;5.03;2.38;;;8.90;77.50;;;;;;4959015;29;20496;-86
2023/03/12 03:45:14;;;;;;;4.90;2.10;;;8.90;77.40;;;;;;4944868;29;20076;-85
2023/03/12 03:47:39;;;;;;;5.13;2.28;;;8.90;77.50;;;;;;4945170;29;20165;-85
2023/03/12 03:50:05;;;;;;;4.63;2.20;;;8.90;77.50;;;;;;4962101;28;20033;-86
2023/03/12 03:52:31;;;;;;;4.65;2.33;;;8.90;77.50;;;;;;4961428;29;20031;-85
2023/03/12 03:54:58;;;;;;;4.95;2.40;;;8.90;77.50;;;;;;4944114;29;20062;-85
2023/03/12 03:57:24;;;;;;;4.53;2.00;;;8.90;77.50;;;;;;4944226;29;20054;-84
2023/03/12 03:59:49;;;;;;;4.80;2.17;;;8.90;77.40;;;;;;4960896;28;20027;-85
2023/03/12 04:02:15;;;;;;;4.38;2.25;;;8.90;77.50;;;;;;4943897;29;20039;-84
2023/03/12 04:04:40;;;;;;;4.20;2.10;;;8.90;77.50;;;;;;4943169;29;20042;-85
2023/03/12 04:07:06;;;;;;;4.78;2.38;;;8.90;77.50;;;;;;4958617;29;20140;-86
2023/03/12 04:09:32;;;;;;;3.83;2.03;;;8.90;77.40;;;;;;4942911;29;20414;-84
2023/03/12 04:11:57;;;;;;;5.07;2.17;;;8.90;77.50;;;;;;4958447;29;20030;-84
2023/03/12 04:14:23;;;;;;;4.05;2.10;;;8.90;77.50;;;;;;4942291;29;20019;-83
2023/03/12 04:16:48;;;;;;;5.22;2.42;;;8.90;77.40;;;;;;4959651;29;20046;-84
2023/03/12 04:19:13;;;;;;;4.38;2.20;;;8.90;77.40;;;;;;4959048;28;20019;-85
2023/03/12 04:21:39;;;;;;;5.57;2.40;;;8.90;77.40;;;;;;4941364;29;20058;-81
2023/03/12 04:24:06;;;;;;;5.68;2.55;;;8.90;77.40;;;;;;4944709;29;20027;-85
2023/03/12 04:26:32;;;;;;;5.50;2.47;;;8.90;77.50;;;;;;4947457;29;20054;-86
2023/03/12 04:28:59;;;;;;;4.88;2.20;;;8.90;77.40;;;;;;4964672;28;20100;-84
2023/03/12 04:31:25;;;;;;;4.97;2.42;;;8.90;77.40;;;;;;4944726;29;20057;-84
2023/03/12 04:33:51;;;;;;;5.00;2.55;;;8.70;77.30;;;;;;4962222;29;20494;-84
2023/03/12 04:36:16;;;;;;;5.00;2.25;;;8.90;77.30;;;;;;4945393;29;20027;-84
2023/03/12 04:38:42;;;;;;;5.22;2.78;;;8.90;77.30;;;;;;4947251;29;20083;-84
2023/03/12 04:41:11;;;;;;;4.60;2.30;;;8.90;77.30;;;;;;4944196;29;20108;-84
2023/03/12 04:43:37;;;;;;;3.92;2.25;;;8.90;77.30;;;;;;4962080;29;20475;-84
2023/03/12 04:46:03;;;;;;;4.82;2.20;;;8.90;77.30;;;;;;4959673;29;20122;-84
2023/03/12 04:48:29;;;;;;;4.35;2.20;;;8.90;77.40;;;;;;4944764;28;20410;-85
2023/03/12 04:50:54;;;;;;;5.60;2.75;;;8.90;77.30;;;;;;4962099;29;20092;-84
2023/03/12 04:53:20;;;;;;;5.10;2.20;;;8.90;77.30;;;;;;4944434;29;20027;-85
2023/03/12 04:58:21;;;;;;;6.13;2.70;;;8.90;77.30;;;;;;5014499;28;20050;-80
2023/03/12 05:00:48;;;;;;;4.57;2.33;;;8.90;77.30;;;;;;4998305;28;20029;-79
2023/03/12 05:03:14;;;;;;;5.50;2.22;;;8.90;77.30;;;;;;4998425;28;20026;-80
2023/03/12 05:05:39;;;;;;;4.78;2.20;;;8.90;77.30;;;;;;5015737;28;20041;-82
2023/03/12 05:08:05;;;;;;;4.35;2.30;;;8.90;77.30;;;;;;4998266;28;20030;-80
2023/03/12 05:10:31;;;;;;;5.07;2.20;;;8.90;77.30;;;;;;5015794;28;20034;-81
2023/03/12 05:12:56;;;;;;;4.95;2.40;;;8.90;77.20;;;;;;4998068;28;20710;-80
2023/03/12 05:15:22;;;;;;;4.13;2.10;;;8.90;77.30;;;;;;4998746;28;20400;-80
2023/03/12 05:17:48;;;;;;;4.82;2.50;;;8.90;77.30;;;;;;4998903;28;20121;-80
2023/03/12 05:20:13;;;;;;;4.30;2.22;;;8.90;77.30;;;;;;4998879;28;20370;-81
2023/03/12 05:22:39;;;;;;;4.85;2.42;;;8.90;77.30;;;;;;4998321;28;20029;-80
2023/03/12 05:25:05;;;;;;;3.95;2.10;;;8.90;77.30;;;;;;4997900;28;20022;-80
2023/03/12 05:27:31;;;;;;;3.90;2.05;;;8.90;77.30;;;;;;4997706;28;20022;-80
2023/03/12 05:29:57;;;;;;;3.38;1.90;;;8.90;77.20;;;;;;5014282;28;20026;-79
2023/03/12 05:32:22;;;;;;;4.82;2.22;;;8.90;77.20;;;;;;5015154;28;20033;-80
2023/03/12 05:34:48;;;;;;;3.75;2.00;;;8.90;77.30;;;;;;4996701;28;20028;-80
2023/03/12 05:37:13;;;;;;;4.40;2.08;;;8.80;77.20;;;;;;5015850;28;20026;-82
2023/03/12 05:39:45;;;;;;;4.50;2.10;;;8.90;77.20;;;;;;5015819;28;20025;-80
2023/03/12 05:42:12;;;;;;;4.95;1.98;;;8.90;77.10;;;;;;4998566;28;20061;-82
2023/03/12 05:44:37;;;;;;;4.28;2.10;;;8.90;77.10;;;;;;4987261;28;20040;-85
2023/03/12 05:47:03;;;;;;;4.78;2.30;;;8.80;77.10;;;;;;4993172;28;20470;-84
2023/03/12 05:49:30;;;;;;;4.72;2.25;;;8.90;77.10;;;;;;4991517;28;20030;-84
2023/03/12 05:51:55;;;;;;;5.13;2.22;;;8.80;77.10;;;;;;5016821;28;20040;-85
2023/03/12 05:54:21;;;;;;;5.10;2.03;;;8.90;77.10;;;;;;4998169;28;20030;-82
2023/03/12 05:56:46;;;;;;;5.22;2.20;;;8.90;77.10;;;;;;5014808;28;20093;-84
2023/03/12 05:59:12;;;;;;;4.78;2.35;;;8.80;77.00;;;;;;4997868;28;20502;-86
2023/03/12 06:01:38;;;;;;;4.38;2.10;;;8.80;77.00;;;;;;4998420;28;20036;-86
2023/03/12 06:04:04;;;;;;;4.18;2.13;;;8.90;77.00;;;;;;4997308;28;20040;-87
2023/03/12 06:06:31;;;;;;;4.25;2.03;;;8.90;77.10;;;;;;4994403;28;20034;-83
2023/03/12 06:08:57;;;;;;;4.13;2.10;;;8.90;77.00;;;;;;4978492;28;20033;-82
2023/03/12 06:11:22;;;;;;;4.80;2.33;;;8.80;77.00;;;;;;4978360;28;20034;-85
2023/03/12 06:13:48;;;;;;;4.22;2.28;;;8.80;77.10;;;;;;4977719;28;20022;-83
2023/03/12 06:16:17;;;;;;;4.55;2.25;;;8.80;77.00;;;;;;4978522;28;20018;-83
2023/03/12 06:18:43;;;;;;;3.58;2.10;;;8.80;77.00;;;;;;4979416;28;20026;-84
2023/03/12 06:21:14;;;;;;;4.38;2.20;;;8.80;77.00;;;;;;4979445;28;20468;-83
2023/03/12 06:23:41;;;;;;;4.75;2.13;;;8.80;77.10;;;;;;4980255;28;20045;-84
2023/03/12 06:26:07;;;;;;;4.75;2.00;;;8.80;77.00;;;;;;4993991;28;20038;-81
2023/03/12 06:28:33;;;;;;;5.47;2.22;;;8.80;76.90;;;;;;4973867;28;20027;-80
2023/03/12 06:30:58;;;;;;;4.35;2.33;;;8.80;77.00;;;;;;4973655;28;20027;-80
2023/03/12 06:33:24;;;;;;;4.93;2.10;;;8.80;77.00;;;;;;4973396;28;20030;-85
2023/03/12 06:35:54;;;;;;;4.70;2.20;;;8.80;76.90;;;;;;4991821;28;20080;-80
2023/03/12 06:38:19;;;;;;;5.07;2.03;;;8.80;76.80;;;;;;5010222;28;20109;-80
2023/03/12 06:41:13;;;;;;;5.25;2.50;;;8.80;76.70;;;;;;4992695;28;20142;-80
2023/03/12 06:43:39;;;;;;;4.53;2.15;;;8.80;77.00;;;;;;5008086;28;20034;-79
2023/03/12 06:46:06;;;;;;;5.25;2.30;;;8.80;76.80;;;;;;4992320;28;20100;-80
2023/03/12 06:48:35;;;;;;;3.80;2.10;;;8.80;76.90;;;;;;4992498;28;20026;-81
2023/03/12 06:51:04;;;;;;;4.13;2.05;;;8.80;76.70;;;;;;5010072;28;20026;-82
2023/03/12 06:53:29;;;;;;;4.88;2.25;;;8.80;76.90;;;;;;5010347;28;20026;-84
2023/03/12 06:55:55;;;;;;;5.28;2.20;;;8.80;76.70;;;;;;4992379;28;20405;-82
2023/03/12 06:58:21;;;;;;;4.28;2.10;;;8.90;76.80;;;;;;5009881;28;20034;-80
2023/03/12 07:00:46;;;;;;;3.60;1.98;;;8.80;76.70;;;;;;4992293;28;20029;-80
2023/03/12 07:03:12;;;;;;;4.80;2.10;;;8.80;76.70;;;;;;4993763;28;20049;-82
2023/03/12 07:05:37;;;;;;;4.07;2.20;;;8.80;76.70;;;;;;5010433;28;20437;-79
2023/03/12 07:08:03;;;;;;;4.60;2.28;;;8.80;77.10;;;;;;5011889;28;20036;-80
2023/03/12 07:10:28;;;;;;;4.90;2.47;;;8.80;76.70;;;;;;5011484;28;20856;-82
2023/03/12 07:12:55;;;;;;;3.95;2.33;;;8.80;76.70;;;;;;4993808;28;20025;-80
2023/03/12 07:15:21;;;;;;;5.35;2.58;;;8.80;76.70;;;;;;5003340;28;20026;-80
2023/03/12 07:17:46;;;;;;;5.93;2.80;;;8.80;76.60;;;;;;5011315;28;20054;-85
2023/03/12 07:20:12;;;;;;;5.03;2.58;;;8.80;76.60;;;;;;4992380;28;20049;-82
2023/03/12 07:22:38;;;;;;;4.22;2.40;;;8.80;76.70;;;;;;4994573;28;20036;-83
2023/03/12 07:25:04;;;;;;;4.70;2.50;;;8.80;76.70;;;;;;5011719;28;20482;-80
2023/03/12 07:27:29;;;;;;;4.82;2.38;;;8.80;76.60;;;;;;4988336;28;20092;-81
2023/03/12 07:29:55;;;;;;;4.90;2.60;;;8.80;76.70;;;;;;4993802;28;20026;-84
2023/03/12 07:32:20;;;;;;;4.35;2.30;;;8.80;76.70;;;;;;4993453;28;20411;-81
2023/03/12 07:34:46;;;;;;;5.20;2.28;;;8.80;76.50;;;;;;5011193;28;20026;-81
2023/03/12 07:37:11;;;;;;;4.32;2.22;;;8.80;76.50;;;;;;4993988;28;20033;-81
2023/03/12 07:39:37;;;;;;;4.80;2.47;;;8.80;76.60;;;;;;4993630;28;20021;-82
2023/03/12 07:42:02;;;;;;;8.00;2.88;;;8.80;76.30;;;;;;5012119;28;20029;-83
2023/03/12 07:44:28;;;;;;;8.25;2.67;;;8.80;75.20;;;;;;5011415;28;20087;-82
2023/03/12 07:46:54;;;;;;;4.88;2.53;;;8.80;74.90;;;;;;4993991;28;20025;-82
2023/03/12 07:49:19;;;;;;;7.53;2.92;;;8.80;74.80;;;;;;4995358;28;20515;-81
2023/03/12 07:51:45;;;;;;;6.63;2.40;;;8.80;75.10;;;;;;4996170;28;20168;-81
2023/03/12 07:54:11;;;;;;;6.63;2.50;;;8.80;75.30;;;;;;4995426;28;20022;-81
2023/03/12 07:56:36;;;;;;;7.38;2.50;;;8.80;75.90;;;;;;4995693;28;20551;-81
2023/03/12 07:59:02;;;;;;;6.55;2.70;;;8.80;75.40;;;;;;5001850;28;20025;-80
2023/03/12 08:01:30;;;;;;;5.75;2.40;;;8.80;75.40;;;;;;5002320;28;20033;-80
2023/03/12 08:03:57;;;;;;;6.20;2.53;;;8.80;75.50;;;;;;5001676;28;20508;-80
2023/03/12 08:06:23;;;;;;;5.72;2.40;;;8.80;75.50;;;;;;5002005;28;20034;-83
2023/03/12 08:08:49;;;;;;;5.85;2.65;;;8.80;75.40;;;;;;5002109;28;20032;-82
2023/03/12 08:11:14;;;;;;;4.72;2.63;;;8.80;75.10;;;;;;5001880;28;20029;-83
2023/03/12 08:13:40;;;;;;;5.88;2.50;;;8.80;75.30;;;;;;5002536;28;20038;-82
2023/03/12 08:16:05;;;;;;;6.85;2.63;;;8.80;75.60;;;;;;5003207;28;20076;-82
2023/03/12 08:18:31;;;;;;;5.25;2.47;;;8.80;75.40;;;;;;5003581;28;20165;-83
2023/03/12 08:20:56;;;;;;;6.20;2.55;;;8.80;75.40;;;;;;5004504;28;20488;-81
2023/03/12 08:23:22;;;;;;;6.80;2.60;;;8.80;75.50;;;;;;5003851;28;20117;-82
2023/03/12 08:25:51;;;;;;;4.88;2.47;;;8.80;75.60;;;;;;5002501;28;20069;-82
2023/03/12 08:28:18;;;;;;;5.95;2.55;;;8.80;75.50;;;;;;5021345;28;20118;-81
2023/03/12 08:30:52;;;;;;;6.35;3.00;;;8.90;75.60;;;;;;5003487;28;20080;-82
2023/03/12 08:33:18;;;;;;;4.45;2.60;;;8.80;75.60;;;;;;5002698;28;20025;-84
2023/03/12 08:35:44;;;;;;;4.70;2.53;;;8.90;75.60;;;;;;5002090;28;20025;-81
2023/03/12 08:38:10;;;;;;;6.25;2.55;;;8.80;75.60;;;;;;5001552;28;20080;-81
2023/03/12 08:40:36;;;;;;;5.82;2.47;;;8.80;75.40;;;;;;5019145;28;20034;-81
2023/03/12 08:43:01;;;;;;;4.60;2.17;;;8.80;75.70;;;;;;5003774;28;20032;-81
2023/03/12 08:45:27;;;;;;;6.60;2.53;;;8.70;75.40;;;;;;5021631;28;20132;-81
2023/03/12 08:47:52;;;;;;;5.55;2.40;;;8.80;75.50;;;;;;5001702;28;20466;-81
2023/03/12 08:50:20;;;;;;;4.40;2.30;;;8.80;75.60;;;;;;5019590;28;20045;-81
2023/03/12 08:52:46;;;;;;;5.28;2.50;;;8.80;75.60;;;;;;5002127;28;20452;-80
2023/03/12 08:55:12;;;;;;;4.90;2.25;;;8.80;75.30;;;;;;5001685;28;20022;-82
2023/03/12 08:57:37;;;;;;;4.32;2.40;;;8.80;75.30;;;;;;5002342;28;20029;-84
2023/03/12 09:00:10;;;;;;;4.72;2.40;;;8.80;75.50;;;;;;5003411;28;20018;-83
2023/03/12 09:02:36;;;;;;;6.10;2.47;;;8.80;75.60;;;;;;5001850;28;20021;-82
2023/03/12 09:05:02;;;;;;;4.85;2.25;;;8.80;75.50;;;;;;5001018;28;20025;-82
2023/03/12 09:07:30;;;;;;;5.40;2.60;;;8.80;75.50;;;;;;5001148;28;20026;-82
2023/03/12 09:09:55;;;;;;;5.70;2.47;;;8.80;75.60;;;;;;5015160;28;20034;-82
2023/03/12 09:12:21;;;;;;;4.90;2.30;;;8.80;75.50;;;;;;4997910;28;20030;-81
2023/03/12 09:14:46;;;;;;;4.93;2.58;;;8.80;75.40;;;;;;4997631;28;20022;-82
2023/03/12 09:17:12;;;;;;;5.95;2.50;;;8.80;75.50;;;;;;4997788;28;20025;-82
2023/03/12 09:19:38;;;;;;;5.13;2.10;;;8.80;75.20;;;;;;4997789;28;20431;-81
2023/03/12 09:22:04;;;;;;;5.65;2.30;;;8.80;75.60;;;;;;4997898;28;20030;-79
2023/03/12 09:24:29;;;;;;;4.95;2.40;;;8.90;75.40;;;;;;5015242;28;20032;-81
2023/03/12 09:26:55;;;;;;;4.07;2.30;;;8.80;75.60;;;;;;4997650;28;20037;-81
2023/03/12 09:29:20;;;;;;;5.45;2.30;;;8.80;75.70;;;;;;4986456;28;20053;-82
2023/03/12 09:31:46;;;;;;;4.10;1.98;;;8.80;75.60;;;;;;4992996;28;20033;-81
2023/03/12 09:34:11;;;;;;;4.90;2.20;;;8.80;75.60;;;;;;4997648;28;20029;-81
2023/03/12 09:36:37;;;;;;;4.90;2.25;;;8.80;75.60;;;;;;4998379;28;20502;-81
2023/03/12 09:39:02;;;;;;;4.43;2.20;;;8.80;75.50;;;;;;5016108;28;20022;-80
2023/03/12 09:41:33;;;;;;;4.45;2.20;;;8.80;75.60;;;;;;4997969;28;20068;-81
2023/03/12 09:44:03;;;;;;;5.07;2.30;;;8.80;75.60;;;;;;5015615;28;20026;-80
2023/03/12 09:46:40;;;;;;;4.93;2.40;;;8.80;75.60;;;;;;4998896;28;20077;-79
2023/03/12 09:49:15;;;;;;;3.78;1.90;;;8.80;75.60;;;;;;4999277;28;20112;-79
2023/03/12 09:51:46;;;;;;;3.40;1.95;;;8.80;75.80;;;;;;5016589;28;20034;-80
2023/03/12 09:54:26;;;;;;;4.53;2.10;;;8.80;75.80;;;;;;4997394;28;20030;-80
2023/03/12 09:56:54;;;;;;;4.78;2.17;;;8.80;75.80;;;;;;5015369;28;20057;-80
2023/03/12 09:59:21;;;;;;;5.55;2.30;;;8.80;75.80;;;;;;5015455;28;20498;-82
2023/03/12 10:01:51;;;;;;;4.22;2.20;;;8.80;75.90;;;;;;5015911;28;20036;-81
2023/03/12 10:04:28;;;;;;;5.50;2.35;;;8.80;75.80;;;;;;5016906;28;20029;-80
2023/03/12 10:07:12;;;;;;;4.20;2.10;;;8.80;76.00;;;;;;5016799;28;20057;-80
2023/03/12 10:10:09;;;;;;;4.70;2.20;;;8.80;75.80;;;;;;4997778;28;20026;-79
2023/03/12 10:13:01;;;;;;;3.75;2.08;;;8.80;76.00;;;;;;4997930;28;20034;-80
2023/03/12 10:15:58;;;;;;;4.72;2.20;;;8.80;75.90;;;;;;4997535;28;20025;-79
2023/03/12 10:18:36;;;;;;;5.15;2.28;;;8.80;75.90;;;;;;5009744;28;20087;-79
2023/03/12 10:21:02;;;;;;;4.60;2.25;;;8.90;76.00;;;;;;4994329;28;20118;-81
2023/03/12 10:23:48;;;;;;;4.72;2.20;;;8.90;76.00;;;;;;4996024;28;20124;-81
2023/03/12 10:26:17;;;;;;;4.50;2.30;;;8.80;75.80;;;;;;4995149;28;20072;-81
2023/03/12 10:29:11;;;;;;;4.57;2.35;;;8.90;76.00;;;;;;4994301;28;20049;-81
2023/03/12 10:31:47;;;;;;;4.38;2.38;;;8.90;76.00;;;;;;4972252;28;20053;-79
2023/03/12 10:34:41;;;;;;;4.10;2.03;;;8.80;76.00;;;;;;4989671;28;20117;-81
2023/03/12 10:37:27;;;;;;;3.83;2.15;;;8.90;76.00;;;;;;4994580;28;20028;-82
2023/03/12 10:39:59;;;;;;;4.63;2.30;;;8.90;76.00;;;;;;4993564;28;20030;-83
2023/03/12 10:42:27;;;;;;;3.97;2.00;;;8.90;76.10;;;;;;4992168;28;20516;-82
2023/03/12 10:44:57;;;;;;;4.43;2.42;;;8.90;76.10;;;;;;4974657;28;20079;-83
2023/03/12 10:47:34;;;;;;;4.85;2.33;;;8.90;76.10;;;;;;4974531;28;20037;-82
2023/03/12 10:50:24;;;;;;;4.65;2.42;;;8.90;76.10;;;;;;4976032;28;20034;-83
2023/03/12 10:53:11;;;;;;;5.15;2.60;;;8.90;76.10;;;;;;4975327;28;20579;-81
2023/03/12 10:55:38;;;;;;;3.67;1.92;;;8.80;76.20;;;;;;4991456;28;20037;-81
2023/03/12 11:01:02;;;;;;;5.28;2.30;;;8.80;76.10;;;;;;5391374;23;20295;-84
2023/03/12 11:03:28;;;;;;;5.38;2.35;;;8.80;76.20;;;;;;4972880;28;20106;-79
2023/03/12 11:06:02;;;;;;;4.38;2.05;;;8.80;76.20;;;;;;4974733;28;20547;-82
2023/03/12 11:08:34;;;;;;;5.22;2.30;;;8.80;76.10;;;;;;4975282;28;20188;-82
2023/03/12 11:11:01;;;;;;;5.55;2.40;;;8.80;76.20;;;;;;4984575;28;20034;-84
2023/03/12 11:13:31;;;;;;;4.50;2.15;;;8.80;76.20;;;;;;4955900;28;20046;-83
2023/03/12 11:16:25;;;;;;;4.95;2.20;;;8.80;76.10;;;;;;4956253;28;20026;-84
2023/03/12 11:19:02;;;;;;;5.10;2.30;;;8.80;76.40;;;;;;4976234;28;20070;-83
2023/03/12 11:21:30;;;;;;;3.97;2.00;;;8.80;76.40;;;;;;4963217;28;20469;-83
2023/03/12 11:23:56;;;;;;;4.68;2.28;;;8.80;76.40;;;;;;4959922;28;20030;-83
2023/03/12 11:26:30;;;;;;;5.97;2.50;;;8.80;76.30;;;;;;4977569;28;20094;-84
2023/03/12 11:29:20;;;;;;;4.97;2.33;;;8.80;76.30;;;;;;4977103;28;20527;-83
2023/03/12 11:32:01;;;;;;;5.00;2.40;;;8.80;76.40;;;;;;4975797;28;20514;-83
2023/03/12 11:34:30;;;;;;;3.83;2.10;;;8.90;76.50;;;;;;4976114;28;20038;-83
2023/03/12 11:37:14;;;;;;;4.47;2.30;;;8.80;76.40;;;;;;4979702;28;20037;-86
2023/03/12 11:40:08;;;;;;;4.97;2.60;;;8.80;76.50;;;;;;4974523;28;20392;-84
2023/03/12 11:43:20;;;;;;;5.72;2.75;;;8.80;76.50;;;;;;4975238;28;20488;-84
2023/03/12 11:46:07;;;;;;;5.15;2.70;;;8.80;76.60;;;;;;4973907;28;20436;-83
2023/03/12 11:48:45;;;;;;;6.50;2.33;;;8.80;76.70;;;;;;4973891;28;20062;-84
2023/03/12 11:51:32;;;;;;;4.88;2.60;;;8.80;76.70;;;;;;4991541;28;20061;-83
2023/03/12 11:54:25;;;;;;;5.68;2.67;;;8.80;76.80;;;;;;4993230;28;20030;-84
2023/03/12 11:57:23;;;;;;;4.68;2.40;;;8.80;76.80;;;;;;4994314;28;20022;-85
2023/03/12 12:00:16;;;;;;;4.15;2.25;;;8.80;76.70;;;;;;4980740;28;20106;-85
2023/03/12 12:02:42;;;;;;;4.70;2.38;;;8.80;76.80;;;;;;4974805;28;20030;-86
2023/03/12 12:05:30;;;;;;;4.72;2.53;;;8.80;76.80;;;;;;4974869;28;20045;-81
2023/03/12 12:08:18;;;;;;;5.47;2.55;;;8.80;76.90;;;;;;4977039;28;20158;-87
2023/03/12 12:11:22;;;;;;;5.30;2.60;;;8.80;76.90;;;;;;4973272;28;20385;-83
2023/03/12 12:14:12;;;;;;;4.97;2.42;;;8.80;76.90;;;;;;4988805;28;20548;-81
2023/03/12 12:17:03;;;;;;;5.37;2.53;;;8.80;77.00;;;;;;4991311;28;20058;-83
2023/03/12 12:19:44;;;;;;;5.65;2.60;;;8.80;77.00;;;;;;4990917;28;20548;-87
2023/03/12 12:22:27;;;;;;;;;;;8.80;76.90;;;;;;4975346;28;20034;-84
2023/03/12 12:25:22;;;;;;;57.17;6.20;;;8.80;77.00;;;;;;4974481;28;19912;-81
2023/03/12 12:28:21;;;;;;;32.65;4.68;;;8.80;76.70;;;;;;4974507;28;20030;-85
2023/03/12 12:30:53;;;;;;;24.20;4.32;;;8.80;76.70;;;;;;4975522;28;20030;-83
2023/03/12 12:33:21;;;;;;;;;;;8.80;76.80;;;;;;4992135;28;20476;-83
2023/03/12 12:35:47;;;;;;;14.10;3.55;;;8.80;77.00;;;;;;4974681;28;19905;-82
2023/03/12 12:38:29;;;;;;;20.85;4.10;;;8.80;77.00;;;;;;4974438;28;20374;-81
2023/03/12 12:41:09;;;;;;;16.83;3.72;;;8.80;77.60;;;;;;4974494;28;20041;-80
2023/03/12 12:52:11;;;;;;;14.68;3.97;;;8.80;77.10;;;;;;5625245;23;20294;-84
2023/03/12 12:54:59;;;;;;;12.35;3.10;;;8.80;77.20;;;;;;4977767;28;20035;-82
2023/03/12 12:57:34;;;;;;;17.67;3.45;;;8.80;77.30;;;;;;4980033;28;20050;-81
2023/03/12 13:00:38;;;;;;;9.20;2.90;;;8.80;77.30;;;;;;4979441;28;20090;-81
2023/03/12 13:03:03;;;;;;;9.50;3.28;;;8.80;77.30;;;;;;4979639;28;20114;-85
2023/03/12 13:05:35;;;;;;;6.68;2.35;;;8.80;77.30;;;;;;4980628;28;20058;-85
2023/03/12 13:08:01;;;;;;;6.50;2.70;;;8.80;77.40;;;;;;4999240;28;20034;-83
2023/03/12 13:10:33;;;;;;;10.07;2.80;;;8.80;77.40;;;;;;4998901;28;20065;-82
2023/03/12 13:13:03;;;;;;;12.45;3.10;;;8.80;77.40;;;;;;4981526;28;20030;-81
2023/03/12 13:15:29;;;;;;;10.50;3.20;;;8.80;77.40;;;;;;4981858;28;20117;-80
2023/03/12 13:17:57;;;;;;;10.00;2.80;;;8.80;77.40;;;;;;4981623;28;20069;-84
2023/03/12 13:20:59;;;;;;;10.32;3.00;;;8.80;77.50;;;;;;4998712;28;20023;-81
2023/03/12 13:24:01;;;;;;;7.07;2.63;;;8.80;78.00;;;;;;4970780;28;20030;-83
2023/03/12 13:26:52;;;;;;;7.78;2.75;;;8.80;77.50;;;;;;4971249;28;20034;-83